Eads, Tennessee
Current Conditions -  °F | °C
As of 5:50 PM on Wednesday 26 Nov 2014 (Local Time) from KNQA Reporting Station
Broken Clouds Broken Clouds  
Wind Chill: 46°   Ceiling: 9000
Heat Index: 46°   Visibility: 10mi
Dew Point: 37°   Wind: 3mph
Humidity: 71%   Direction: NA
Pressure: 30.09"   Gusts: NA
Location:  35.2°N, 89.65°W
Report Text: KNQA 262350Z VRB03KT 10SM FEW075 BKN090 08/03 A3009
Loading
Personal Weather Stations






























Interactive Weather Map New forecast layout! Learn more

10-Day Weather Forecast

Advertisements
Track Severe Weather on mobile